sensor_id;sensor_type;location;lat;lon;timestamp;pressure;altitude;pressure_sealevel;temperature
13570;BMP180;6856;51.460;7.158;2022-11-20T00:00:46;100029.00;;;4.10
13570;BMP180;6856;51.460;7.158;2022-11-20T00:03:26;100022.00;;;4.10
13570;BMP180;6856;51.460;7.158;2022-11-20T00:06:17;100042.00;;;3.80
13570;BMP180;6856;51.460;7.158;2022-11-20T00:09:13;100034.00;;;4.10
13570;BMP180;6856;51.460;7.158;2022-11-20T00:12:00;100028.00;;;4.10
13570;BMP180;6856;51.460;7.158;2022-11-20T00:14:42;100008.00;;;4.20
13570;BMP180;6856;51.460;7.158;2022-11-20T00:17:30;100004.00;;;4.20
13570;BMP180;6856;51.460;7.158;2022-11-20T00:20:17;100027.00;;;3.80
13570;BMP180;6856;51.460;7.158;2022-11-20T00:23:11;100011.00;;;4.20
13570;BMP180;6856;51.460;7.158;2022-11-20T00:25:51;100012.00;;;4.20
13570;BMP180;6856;51.460;7.158;2022-11-20T00:28:32;99966.00;;;4.20
13570;BMP180;6856;51.460;7.158;2022-11-20T00:31:12;99945.00;;;4.20
13570;BMP180;6856;51.460;7.158;2022-11-20T00:34:02;100011.00;;;4.30
13570;BMP180;6856;51.460;7.158;2022-11-20T00:36:45;99924.00;;;4.30
13570;BMP180;6856;51.460;7.158;2022-11-20T00:39:21;100001.00;;;4.30
13570;BMP180;6856;51.460;7.158;2022-11-20T00:42:04;99954.00;;;4.20
13570;BMP180;6856;51.460;7.158;2022-11-20T00:44:46;100012.00;;;4.30
13570;BMP180;6856;51.460;7.158;2022-11-20T00:47:23;100027.00;;;4.30
13570;BMP180;6856;51.460;7.158;2022-11-20T00:50:13;100005.00;;;4.30
13570;BMP180;6856;51.460;7.158;2022-11-20T00:52:50;100014.00;;;4.30
13570;BMP180;6856;51.460;7.158;2022-11-20T00:55:36;100005.00;;;4.30
13570;BMP180;6856;51.460;7.158;2022-11-20T00:58:14;99975.00;;;4.30
13570;BMP180;6856;51.460;7.158;2022-11-20T01:01:19;100011.00;;;4.30
13570;BMP180;6856;51.460;7.158;2022-11-20T01:04:22;99968.00;;;4.30
13570;BMP180;6856;51.460;7.158;2022-11-20T01:07:01;99961.00;;;4.30
13570;BMP180;6856;51.460;7.158;2022-11-20T01:09:38;100003.00;;;4.30
13570;BMP180;6856;51.460;7.158;2022-11-20T01:12:39;100004.00;;;4.30
13570;BMP180;6856;51.460;7.158;2022-11-20T01:15:23;100004.00;;;4.20
13570;BMP180;6856;51.460;7.158;2022-11-20T01:18:09;99938.00;;;4.20
13570;BMP180;6856;51.460;7.158;2022-11-20T01:21:16;99970.00;;;4.20
13570;BMP180;6856;51.460;7.158;2022-11-20T01:23:56;100011.00;;;4.20
13570;BMP180;6856;51.460;7.158;2022-11-20T01:26:35;100004.00;;;4.20
13570;BMP180;6856;51.460;7.158;2022-11-20T01:29:27;99967.00;;;4.20
13570;BMP180;6856;51.460;7.158;2022-11-20T01:32:08;99927.00;;;4.20
13570;BMP180;6856;51.460;7.158;2022-11-20T01:35:25;100015.00;;;4.20
13570;BMP180;6856;51.460;7.158;2022-11-20T01:38:16;99911.00;;;4.10
13570;BMP180;6856;51.460;7.158;2022-11-20T01:41:00;99968.00;;;4.20
13570;BMP180;6856;51.460;7.158;2022-11-20T01:44:03;99991.00;;;4.20
13570;BMP180;6856;51.460;7.158;2022-11-20T01:47:06;99971.00;;;4.20
13570;BMP180;6856;51.460;7.158;2022-11-20T01:50:31;99920.00;;;4.20
13570;BMP180;6856;51.460;7.158;2022-11-20T01:54:12;99911.00;;;4.10
13570;BMP180;6856;51.460;7.158;2022-11-20T01:57:54;99997.00;;;4.10
13570;BMP180;6856;51.460;7.158;2022-11-20T02:01:01;99929.00;;;4.10
13570;BMP180;6856;51.460;7.158;2022-11-20T02:04:18;99922.00;;;4.00
13570;BMP180;6856;51.460;7.158;2022-11-20T02:07:12;99996.00;;;4.10
13570;BMP180;6856;51.460;7.158;2022-11-20T02:10:11;99977.00;;;3.80
13570;BMP180;6856;51.460;7.158;2022-11-20T02:13:26;99906.00;;;4.10
13570;BMP180;6856;51.460;7.158;2022-11-20T02:16:37;99899.00;;;4.00
13570;BMP180;6856;51.460;7.158;2022-11-20T02:19:33;99869.00;;;4.10
13570;BMP180;6856;51.460;7.158;2022-11-20T02:22:38;99961.00;;;4.10
13570;BMP180;6856;51.460;7.158;2022-11-20T02:25:35;99876.00;;;4.20
13570;BMP180;6856;51.460;7.158;2022-11-20T02:28:26;99866.00;;;4.20
13570;BMP180;6856;51.460;7.158;2022-11-20T02:31:14;99917.00;;;4.20
13570;BMP180;6856;51.460;7.158;2022-11-20T02:33:58;99880.00;;;4.20
13570;BMP180;6856;51.460;7.158;2022-11-20T02:36:47;99959.00;;;4.20
13570;BMP180;6856;51.460;7.158;2022-11-20T02:40:10;99909.00;;;4.20
13570;BMP180;6856;51.460;7.158;2022-11-20T02:42:57;99958.00;;;4.20
13570;BMP180;6856;51.460;7.158;2022-11-20T02:46:06;99872.00;;;4.30
13570;BMP180;6856;51.460;7.158;2022-11-20T02:48:47;99967.00;;;4.30
13570;BMP180;6856;51.460;7.158;2022-11-20T02:51:30;99947.00;;;4.30
13570;BMP180;6856;51.460;7.158;2022-11-20T02:54:11;99898.00;;;4.30
13570;BMP180;6856;51.460;7.158;2022-11-20T02:57:23;99958.00;;;4.30
13570;BMP180;6856;51.460;7.158;2022-11-20T03:00:23;99956.00;;;4.30
13570;BMP180;6856;51.460;7.158;2022-11-20T03:03:12;99964.00;;;4.20
13570;BMP180;6856;51.460;7.158;2022-11-20T03:06:06;99873.00;;;4.30
13570;BMP180;6856;51.460;7.158;2022-11-20T03:08:45;99838.00;;;4.30
13570;BMP180;6856;51.460;7.158;2022-11-20T03:11:21;99932.00;;;4.30
13570;BMP180;6856;51.460;7.158;2022-11-20T03:14:12;99871.00;;;4.10
13570;BMP180;6856;51.460;7.158;2022-11-20T03:17:35;99940.00;;;4.30
13570;BMP180;6856;51.460;7.158;2022-11-20T03:20:49;99943.00;;;4.10
13570;BMP180;6856;51.460;7.158;2022-11-20T03:23:40;99843.00;;;4.30
13570;BMP180;6856;51.460;7.158;2022-11-20T03:26:30;99842.00;;;4.40
13570;BMP180;6856;51.460;7.158;2022-11-20T03:29:24;99931.00;;;4.40
13570;BMP180;6856;51.460;7.158;2022-11-20T03:32:45;99876.00;;;4.50
13570;BMP180;6856;51.460;7.158;2022-11-20T03:35:49;99946.00;;;4.50
13570;BMP180;6856;51.460;7.158;2022-11-20T03:38:29;99846.00;;;4.50
13570;BMP180;6856;51.460;7.158;2022-11-20T03:41:22;99878.00;;;4.50
13570;BMP180;6856;51.460;7.158;2022-11-20T03:44:16;99861.00;;;4.40
13570;BMP180;6856;51.460;7.158;2022-11-20T03:47:05;99943.00;;;4.40
13570;BMP180;6856;51.460;7.158;2022-11-20T03:50:09;99924.00;;;4.50
13570;BMP180;6856;51.460;7.158;2022-11-20T03:52:58;99869.00;;;4.50
13570;BMP180;6856;51.460;7.158;2022-11-20T03:55:40;99928.00;;;4.60
13570;BMP180;6856;51.460;7.158;2022-11-20T03:58:28;99842.00;;;4.60
13570;BMP180;6856;51.460;7.158;2022-11-20T04:05:38;99923.00;;;4.40
13570;BMP180;6856;51.460;7.158;2022-11-20T04:08:25;99930.00;;;4.60
13570;BMP180;6856;51.460;7.158;2022-11-20T04:11:40;99839.00;;;4.70
13570;BMP180;6856;51.460;7.158;2022-11-20T04:14:44;99904.00;;;4.70
13570;BMP180;6856;51.460;7.158;2022-11-20T04:17:51;99929.00;;;4.60
13570;BMP180;6856;51.460;7.158;2022-11-20T04:20:47;99939.00;;;4.60
13570;BMP180;6856;51.460;7.158;2022-11-20T04:23:26;99845.00;;;4.60
13570;BMP180;6856;51.460;7.158;2022-11-20T04:26:46;99907.00;;;4.60
13570;BMP180;6856;51.460;7.158;2022-11-20T04:29:41;99839.00;;;4.70
13570;BMP180;6856;51.460;7.158;2022-11-20T04:32:23;99916.00;;;4.40
13570;BMP180;6856;51.460;7.158;2022-11-20T04:34:59;99917.00;;;4.70
13570;BMP180;6856;51.460;7.158;2022-11-20T04:38:00;99849.00;;;4.70
13570;BMP180;6856;51.460;7.158;2022-11-20T04:40:45;99918.00;;;4.70
13570;BMP180;6856;51.460;7.158;2022-11-20T04:43:32;99939.00;;;4.70
13570;BMP180;6856;51.460;7.158;2022-11-20T04:46:38;99929.00;;;4.70
13570;BMP180;6856;51.460;7.158;2022-11-20T04:49:17;99822.00;;;4.70
13570;BMP180;6856;51.460;7.158;2022-11-20T04:52:02;99930.00;;;4.70
13570;BMP180;6856;51.460;7.158;2022-11-20T04:55:16;99895.00;;;4.80
13570;BMP180;6856;51.460;7.158;2022-11-20T04:57:56;99896.00;;;4.80
13570;BMP180;6856;51.460;7.158;2022-11-20T05:00:37;99910.00;;;4.70
13570;BMP180;6856;51.460;7.158;2022-11-20T05:03:27;99917.00;;;4.80
13570;BMP180;6856;51.460;7.158;2022-11-20T05:06:05;99850.00;;;4.80
13570;BMP180;6856;51.460;7.158;2022-11-20T05:09:07;99914.00;;;4.80
13570;BMP180;6856;51.460;7.158;2022-11-20T05:12:25;99872.00;;;4.80
13570;BMP180;6856;51.460;7.158;2022-11-20T05:15:05;99935.00;;;4.50
13570;BMP180;6856;51.460;7.158;2022-11-20T05:17:52;99884.00;;;4.80
13570;BMP180;6856;51.460;7.158;2022-11-20T05:20:28;99907.00;;;4.80
13570;BMP180;6856;51.460;7.158;2022-11-20T05:23:31;99923.00;;;4.80
13570;BMP180;6856;51.460;7.158;2022-11-20T05:26:32;99941.00;;;4.80
13570;BMP180;6856;51.460;7.158;2022-11-20T05:29:32;99915.00;;;4.90
13570;BMP180;6856;51.460;7.158;2022-11-20T05:32:09;99911.00;;;4.90
13570;BMP180;6856;51.460;7.158;2022-11-20T05:35:03;99863.00;;;4.90
13570;BMP180;6856;51.460;7.158;2022-11-20T05:37:43;99908.00;;;4.90
13570;BMP180;6856;51.460;7.158;2022-11-20T05:40:37;99923.00;;;4.90
13570;BMP180;6856;51.460;7.158;2022-11-20T05:43:20;99829.00;;;4.90
13570;BMP180;6856;51.460;7.158;2022-11-20T05:46:33;99935.00;;;4.90
13570;BMP180;6856;51.460;7.158;2022-11-20T05:49:20;99920.00;;;4.90
13570;BMP180;6856;51.460;7.158;2022-11-20T05:52:02;99862.00;;;4.90
13570;BMP180;6856;51.460;7.158;2022-11-20T05:54:43;99915.00;;;4.70
13570;BMP180;6856;51.460;7.158;2022-11-20T05:57:55;99858.00;;;4.80
13570;BMP180;6856;51.460;7.158;2022-11-20T06:00:39;99929.00;;;4.80
13570;BMP180;6856;51.460;7.158;2022-11-20T06:03:20;99849.00;;;4.90
13570;BMP180;6856;51.460;7.158;2022-11-20T06:06:26;99916.00;;;4.90
13570;BMP180;6856;51.460;7.158;2022-11-20T06:09:14;99887.00;;;4.90
13570;BMP180;6856;51.460;7.158;2022-11-20T06:12:03;99911.00;;;4.90
13570;BMP180;6856;51.460;7.158;2022-11-20T06:14:40;99839.00;;;4.90
13570;BMP180;6856;51.460;7.158;2022-11-20T06:17:25;99843.00;;;4.90
13570;BMP180;6856;51.460;7.158;2022-11-20T06:20:19;99906.00;;;4.90
13570;BMP180;6856;51.460;7.158;2022-11-20T06:23:06;99846.00;;;5.00
13570;BMP180;6856;51.460;7.158;2022-11-20T06:25:46;99901.00;;;4.90
13570;BMP180;6856;51.460;7.158;2022-11-20T06:28:26;99915.00;;;5.00
13570;BMP180;6856;51.460;7.158;2022-11-20T06:31:06;99847.00;;;5.00
13570;BMP180;6856;51.460;7.158;2022-11-20T06:33:45;99887.00;;;5.00
13570;BMP180;6856;51.460;7.158;2022-11-20T06:36:24;99921.00;;;5.00
13570;BMP180;6856;51.460;7.158;2022-11-20T06:39:15;99847.00;;;5.00
13570;BMP180;6856;51.460;7.158;2022-11-20T06:41:53;99907.00;;;5.00
13570;BMP180;6856;51.460;7.158;2022-11-20T06:44:32;99898.00;;;5.00
13570;BMP180;6856;51.460;7.158;2022-11-20T06:47:07;99925.00;;;5.00
13570;BMP180;6856;51.460;7.158;2022-11-20T06:49:48;99922.00;;;4.90
13570;BMP180;6856;51.460;7.158;2022-11-20T06:52:26;99933.00;;;5.10
13570;BMP180;6856;51.460;7.158;2022-11-20T06:55:04;99892.00;;;5.10
13570;BMP180;6856;51.460;7.158;2022-11-20T06:57:40;99933.00;;;5.10
13570;BMP180;6856;51.460;7.158;2022-11-20T07:03:17;99858.00;;;5.10
13570;BMP180;6856;51.460;7.158;2022-11-20T07:06:03;99859.00;;;5.10
13570;BMP180;6856;51.460;7.158;2022-11-20T07:08:43;99936.00;;;5.10
13570;BMP180;6856;51.460;7.158;2022-11-20T07:11:23;99920.00;;;5.10
13570;BMP180;6856;51.460;7.158;2022-11-20T07:14:02;99930.00;;;5.10
13570;BMP180;6856;51.460;7.158;2022-11-20T07:16:39;99922.00;;;5.10
13570;BMP180;6856;51.460;7.158;2022-11-20T07:19:24;99910.00;;;5.10
13570;BMP180;6856;51.460;7.158;2022-11-20T07:22:01;99861.00;;;5.00
13570;BMP180;6856;51.460;7.158;2022-11-20T07:24:44;99958.00;;;5.00
13570;BMP180;6856;51.460;7.158;2022-11-20T07:27:42;99881.00;;;5.00
13570;BMP180;6856;51.460;7.158;2022-11-20T07:30:22;99958.00;;;4.70
13570;BMP180;6856;51.460;7.158;2022-11-20T07:33:00;99931.00;;;5.00
13570;BMP180;6856;51.460;7.158;2022-11-20T07:35:36;99925.00;;;5.00
13570;BMP180;6856;51.460;7.158;2022-11-20T07:38:20;99948.00;;;5.00
13570;BMP180;6856;51.460;7.158;2022-11-20T07:41:27;99848.00;;;5.00
13570;BMP180;6856;51.460;7.158;2022-11-20T07:44:16;99883.00;;;5.00
13570;BMP180;6856;51.460;7.158;2022-11-20T07:47:35;99878.00;;;5.00
13570;BMP180;6856;51.460;7.158;2022-11-20T07:50:34;99902.00;;;4.90
13570;BMP180;6856;51.460;7.158;2022-11-20T07:53:10;99933.00;;;5.00
13570;BMP180;6856;51.460;7.158;2022-11-20T07:56:16;99885.00;;;5.00
13570;BMP180;6856;51.460;7.158;2022-11-20T07:59:16;99909.00;;;5.00
13570;BMP180;6856;51.460;7.158;2022-11-20T08:06:59;99924.00;;;5.00
13570;BMP180;6856;51.460;7.158;2022-11-20T08:13:44;99883.00;;;4.70
13570;BMP180;6856;51.460;7.158;2022-11-20T08:16:37;99884.00;;;5.10
13570;BMP180;6856;51.460;7.158;2022-11-20T08:19:19;99949.00;;;5.10
13570;BMP180;6856;51.460;7.158;2022-11-20T08:22:21;99871.00;;;5.10
13570;BMP180;6856;51.460;7.158;2022-11-20T08:25:01;99900.00;;;5.10
13570;BMP180;6856;51.460;7.158;2022-11-20T08:27:46;99929.00;;;5.20
13570;BMP180;6856;51.460;7.158;2022-11-20T08:30:38;99856.00;;;5.10
13570;BMP180;6856;51.460;7.158;2022-11-20T08:33:40;99941.00;;;5.20
13570;BMP180;6856;51.460;7.158;2022-11-20T08:36:24;99892.00;;;5.30
13570;BMP180;6856;51.460;7.158;2022-11-20T08:39:38;99825.00;;;5.30
13570;BMP180;6856;51.460;7.158;2022-11-20T08:42:47;99878.00;;;5.30
13570;BMP180;6856;51.460;7.158;2022-11-20T08:45:29;99868.00;;;5.40
13570;BMP180;6856;51.460;7.158;2022-11-20T08:48:13;99931.00;;;5.40
13570;BMP180;6856;51.460;7.158;2022-11-20T08:50:53;99934.00;;;5.40
13570;BMP180;6856;51.460;7.158;2022-11-20T08:53:39;99891.00;;;5.50
13570;BMP180;6856;51.460;7.158;2022-11-20T08:56:46;99865.00;;;5.50
13570;BMP180;6856;51.460;7.158;2022-11-20T08:59:39;99917.00;;;5.60
13570;BMP180;6856;51.460;7.158;2022-11-20T09:02:53;99927.00;;;5.60
13570;BMP180;6856;51.460;7.158;2022-11-20T09:05:37;99906.00;;;5.70
13570;BMP180;6856;51.460;7.158;2022-11-20T09:08:15;99866.00;;;5.70
13570;BMP180;6856;51.460;7.158;2022-11-20T09:10:52;99875.00;;;5.70
13570;BMP180;6856;51.460;7.158;2022-11-20T09:13:34;99885.00;;;5.80
13570;BMP180;6856;51.460;7.158;2022-11-20T09:16:32;99937.00;;;5.90
13570;BMP180;6856;51.460;7.158;2022-11-20T09:19:17;99874.00;;;6.00
13570;BMP180;6856;51.460;7.158;2022-11-20T09:22:11;99879.00;;;5.70
13570;BMP180;6856;51.460;7.158;2022-11-20T09:24:55;99869.00;;;6.10
13570;BMP180;6856;51.460;7.158;2022-11-20T09:27:46;99924.00;;;6.00
13570;BMP180;6856;51.460;7.158;2022-11-20T09:30:29;99869.00;;;6.10
13570;BMP180;6856;51.460;7.158;2022-11-20T09:33:23;99916.00;;;6.20
13570;BMP180;6856;51.460;7.158;2022-11-20T09:36:02;99851.00;;;6.20
13570;BMP180;6856;51.460;7.158;2022-11-20T09:38:44;99818.00;;;6.20
13570;BMP180;6856;51.460;7.158;2022-11-20T09:41:54;99914.00;;;6.30
13570;BMP180;6856;51.460;7.158;2022-11-20T09:45:05;99913.00;;;6.40
13570;BMP180;6856;51.460;7.158;2022-11-20T09:48:14;99904.00;;;6.40
13570;BMP180;6856;51.460;7.158;2022-11-20T09:51:03;99926.00;;;6.50
13570;BMP180;6856;51.460;7.158;2022-11-20T09:54:16;99831.00;;;6.40
13570;BMP180;6856;51.460;7.158;2022-11-20T09:57:00;99906.00;;;6.50
13570;BMP180;6856;51.460;7.158;2022-11-20T09:59:44;99891.00;;;6.60
13570;BMP180;6856;51.460;7.158;2022-11-20T10:02:52;99847.00;;;6.60
13570;BMP180;6856;51.460;7.158;2022-11-20T10:05:46;99875.00;;;6.70
13570;BMP180;6856;51.460;7.158;2022-11-20T10:08:41;99892.00;;;6.80
13570;BMP180;6856;51.460;7.158;2022-11-20T10:11:54;99887.00;;;6.80
13570;BMP180;6856;51.460;7.158;2022-11-20T10:14:58;99882.00;;;6.80
13570;BMP180;6856;51.460;7.158;2022-11-20T10:18:22;99886.00;;;6.80
13570;BMP180;6856;51.460;7.158;2022-11-20T10:21:33;99793.00;;;6.90
13570;BMP180;6856;51.460;7.158;2022-11-20T10:24:48;99799.00;;;6.90
13570;BMP180;6856;51.460;7.158;2022-11-20T10:28:09;99809.00;;;7.00
13570;BMP180;6856;51.460;7.158;2022-11-20T10:31:02;99822.00;;;6.90
13570;BMP180;6856;51.460;7.158;2022-11-20T10:33:54;99865.00;;;7.10
13570;BMP180;6856;51.460;7.158;2022-11-20T10:36:57;99835.00;;;7.20
13570;BMP180;6856;51.460;7.158;2022-11-20T10:40:04;99812.00;;;7.20
13570;BMP180;6856;51.460;7.158;2022-11-20T10:42:52;99861.00;;;7.20
13570;BMP180;6856;51.460;7.158;2022-11-20T10:45:50;99887.00;;;7.20
13570;BMP180;6856;51.460;7.158;2022-11-20T10:49:01;99851.00;;;7.30
13570;BMP180;6856;51.460;7.158;2022-11-20T10:51:54;99852.00;;;7.30
13570;BMP180;6856;51.460;7.158;2022-11-20T10:54:47;99836.00;;;7.40
13570;BMP180;6856;51.460;7.158;2022-11-20T10:57:45;99835.00;;;7.30
13570;BMP180;6856;51.460;7.158;2022-11-20T11:00:31;99867.00;;;7.50
13570;BMP180;6856;51.460;7.158;2022-11-20T11:03:23;99857.00;;;7.50
13570;BMP180;6856;51.460;7.158;2022-11-20T11:06:07;99849.00;;;7.60
13570;BMP180;6856;51.460;7.158;2022-11-20T11:08:44;99812.00;;;7.50
13570;BMP180;6856;51.460;7.158;2022-11-20T11:11:34;99832.00;;;7.60
13570;BMP180;6856;51.460;7.158;2022-11-20T11:14:30;99826.00;;;7.70
13570;BMP180;6856;51.460;7.158;2022-11-20T11:18:22;99825.00;;;7.70
13570;BMP180;6856;51.460;7.158;2022-11-20T11:21:05;99832.00;;;7.60
13570;BMP180;6856;51.460;7.158;2022-11-20T11:23:44;99776.00;;;7.80
13570;BMP180;6856;51.460;7.158;2022-11-20T11:34:41;99831.00;;;7.90
13570;BMP180;6856;51.460;7.158;2022-11-20T11:38:30;99780.00;;;7.90
13570;BMP180;6856;51.460;7.158;2022-11-20T11:42:12;99737.00;;;7.90
13570;BMP180;6856;51.460;7.158;2022-11-20T11:46:40;99778.00;;;8.00
13570;BMP180;6856;51.460;7.158;2022-11-20T11:57:05;99716.00;;;8.00
13570;BMP180;6856;51.460;7.158;2022-11-20T12:01:03;99749.00;;;8.20
13570;BMP180;6856;51.460;7.158;2022-11-20T12:04:57;99725.00;;;8.20
13570;BMP180;6856;51.460;7.158;2022-11-20T12:12:20;99749.00;;;8.30
13570;BMP180;6856;51.460;7.158;2022-11-20T12:15:33;99777.00;;;8.30
13570;BMP180;6856;51.460;7.158;2022-11-20T12:22:29;99708.00;;;8.40
13570;BMP180;6856;51.460;7.158;2022-11-20T12:25:58;99726.00;;;8.40
13570;BMP180;6856;51.460;7.158;2022-11-20T12:36:49;99720.00;;;8.50
13570;BMP180;6856;51.460;7.158;2022-11-20T12:40:23;99673.00;;;8.50
13570;BMP180;6856;51.460;7.158;2022-11-20T12:43:43;99714.00;;;8.50
13570;BMP180;6856;51.460;7.158;2022-11-20T12:56:25;99703.00;;;8.40
13570;BMP180;6856;51.460;7.158;2022-11-20T13:00:08;99690.00;;;8.40
13570;BMP180;6856;51.460;7.158;2022-11-20T13:08:18;99671.00;;;8.40
13570;BMP180;6856;51.460;7.158;2022-11-20T13:11:32;99660.00;;;8.40
13570;BMP180;6856;51.460;7.158;2022-11-20T13:15:11;99663.00;;;8.30
13570;BMP180;6856;51.460;7.158;2022-11-20T13:18:57;99573.00;;;8.50
13570;BMP180;6856;51.460;7.158;2022-11-20T13:30:50;99643.00;;;8.50
13570;BMP180;6856;51.460;7.158;2022-11-20T13:34:50;99643.00;;;8.50
13570;BMP180;6856;51.460;7.158;2022-11-20T13:37:44;99581.00;;;8.50
13570;BMP180;6856;51.460;7.158;2022-11-20T13:40:24;99631.00;;;8.50
13570;BMP180;6856;51.460;7.158;2022-11-20T13:43:33;99648.00;;;8.50
13570;BMP180;6856;51.460;7.158;2022-11-20T13:46:22;99571.00;;;8.50
13570;BMP180;6856;51.460;7.158;2022-11-20T13:49:15;99608.00;;;8.60
13570;BMP180;6856;51.460;7.158;2022-11-20T13:52:38;99627.00;;;8.50
13570;BMP180;6856;51.460;7.158;2022-11-20T13:55:35;99576.00;;;8.60
13570;BMP180;6856;51.460;7.158;2022-11-20T13:58:36;99550.00;;;8.40
13570;BMP180;6856;51.460;7.158;2022-11-20T14:01:28;99561.00;;;8.70
13570;BMP180;6856;51.460;7.158;2022-11-20T14:04:19;99506.00;;;8.60
13570;BMP180;6856;51.460;7.158;2022-11-20T14:07:16;99577.00;;;8.70
13570;BMP180;6856;51.460;7.158;2022-11-20T14:10:26;99533.00;;;8.70
13570;BMP180;6856;51.460;7.158;2022-11-20T14:13:15;99575.00;;;8.60
13570;BMP180;6856;51.460;7.158;2022-11-20T14:16:05;99574.00;;;8.70
13570;BMP180;6856;51.460;7.158;2022-11-20T14:19:31;99571.00;;;8.70
13570;BMP180;6856;51.460;7.158;2022-11-20T14:22:24;99513.00;;;8.70
13570;BMP180;6856;51.460;7.158;2022-11-20T14:25:18;99481.00;;;8.70
13570;BMP180;6856;51.460;7.158;2022-11-20T14:28:15;99489.00;;;8.60
13570;BMP180;6856;51.460;7.158;2022-11-20T14:31:29;99548.00;;;8.60
13570;BMP180;6856;51.460;7.158;2022-11-20T14:34:25;99478.00;;;8.80
13570;BMP180;6856;51.460;7.158;2022-11-20T14:37:20;99544.00;;;8.60
13570;BMP180;6856;51.460;7.158;2022-11-20T14:41:05;99522.00;;;8.80
13570;BMP180;6856;51.460;7.158;2022-11-20T14:44:02;99516.00;;;8.70
13570;BMP180;6856;51.460;7.158;2022-11-20T14:46:43;99470.00;;;8.70
13570;BMP180;6856;51.460;7.158;2022-11-20T14:49:25;99469.00;;;8.70
13570;BMP180;6856;51.460;7.158;2022-11-20T14:52:14;99498.00;;;8.70
13570;BMP180;6856;51.460;7.158;2022-11-20T14:54:51;99506.00;;;8.50
13570;BMP180;6856;51.460;7.158;2022-11-20T14:57:43;99461.00;;;8.80
13570;BMP180;6856;51.460;7.158;2022-11-20T15:00:21;99469.00;;;8.80
13570;BMP180;6856;51.460;7.158;2022-11-20T15:02:56;99487.00;;;8.70
13570;BMP180;6856;51.460;7.158;2022-11-20T15:05:50;99496.00;;;8.70
13570;BMP180;6856;51.460;7.158;2022-11-20T15:08:33;99485.00;;;8.70
13570;BMP180;6856;51.460;7.158;2022-11-20T15:11:20;99450.00;;;8.70
13570;BMP180;6856;51.460;7.158;2022-11-20T15:14:08;99478.00;;;8.60
13570;BMP180;6856;51.460;7.158;2022-11-20T15:16:47;99465.00;;;8.70
13570;BMP180;6856;51.460;7.158;2022-11-20T15:28:51;99407.00;;;8.60
13570;BMP180;6856;51.460;7.158;2022-11-20T15:32:35;99440.00;;;8.60
13570;BMP180;6856;51.460;7.158;2022-11-20T15:40:49;99420.00;;;8.50
13570;BMP180;6856;51.460;7.158;2022-11-20T16:12:54;99305.00;;;8.30
13570;BMP180;6856;51.460;7.158;2022-11-20T16:15:58;99357.00;;;8.30
13570;BMP180;6856;51.460;7.158;2022-11-20T16:18:41;99376.00;;;8.20
13570;BMP180;6856;51.460;7.158;2022-11-20T16:21:37;99294.00;;;8.40
13570;BMP180;6856;51.460;7.158;2022-11-20T16:24:19;99382.00;;;8.40
13570;BMP180;6856;51.460;7.158;2022-11-20T16:27:14;99368.00;;;8.50
13570;BMP180;6856;51.460;7.158;2022-11-20T16:29:56;99388.00;;;8.30
13570;BMP180;6856;51.460;7.158;2022-11-20T16:32:41;99372.00;;;8.50
13570;BMP180;6856;51.460;7.158;2022-11-20T16:35:21;99281.00;;;8.50
13570;BMP180;6856;51.460;7.158;2022-11-20T16:38:04;99304.00;;;8.50
13570;BMP180;6856;51.460;7.158;2022-11-20T16:40:41;99373.00;;;8.50
13570;BMP180;6856;51.460;7.158;2022-11-20T16:43:18;99288.00;;;8.60
13570;BMP180;6856;51.460;7.158;2022-11-20T16:46:39;99376.00;;;8.60
13570;BMP180;6856;51.460;7.158;2022-11-20T16:49:24;99357.00;;;8.60
13570;BMP180;6856;51.460;7.158;2022-11-20T16:52:17;99377.00;;;8.60
13570;BMP180;6856;51.460;7.158;2022-11-20T16:55:18;99362.00;;;8.60
13570;BMP180;6856;51.460;7.158;2022-11-20T16:58:06;99343.00;;;8.60
13570;BMP180;6856;51.460;7.158;2022-11-20T17:01:12;99311.00;;;8.60
13570;BMP180;6856;51.460;7.158;2022-11-20T17:04:14;99309.00;;;8.60
13570;BMP180;6856;51.460;7.158;2022-11-20T17:07:25;99268.00;;;8.30
13570;BMP180;6856;51.460;7.158;2022-11-20T17:10:22;99317.00;;;8.60
13570;BMP180;6856;51.460;7.158;2022-11-20T17:13:09;99252.00;;;8.70
13570;BMP180;6856;51.460;7.158;2022-11-20T17:15:55;99304.00;;;8.70
13570;BMP180;6856;51.460;7.158;2022-11-20T17:18:59;99218.00;;;8.50
13570;BMP180;6856;51.460;7.158;2022-11-20T17:21:42;99312.00;;;8.70
13570;BMP180;6856;51.460;7.158;2022-11-20T17:25:09;99299.00;;;8.80
13570;BMP180;6856;51.460;7.158;2022-11-20T17:28:03;99207.00;;;8.70
13570;BMP180;6856;51.460;7.158;2022-11-20T17:31:29;99269.00;;;8.80
13570;BMP180;6856;51.460;7.158;2022-11-20T17:34:38;99273.00;;;8.80
13570;BMP180;6856;51.460;7.158;2022-11-20T17:37:26;99209.00;;;8.70
13570;BMP180;6856;51.460;7.158;2022-11-20T17:40:24;99240.00;;;8.80
13570;BMP180;6856;51.460;7.158;2022-11-20T17:43:42;99244.00;;;8.80
13570;BMP180;6856;51.460;7.158;2022-11-20T17:46:39;99175.00;;;8.90
13570;BMP180;6856;51.460;7.158;2022-11-20T17:49:37;99161.00;;;8.90
13570;BMP180;6856;51.460;7.158;2022-11-20T17:53:13;99207.00;;;8.90
13570;BMP180;6856;51.460;7.158;2022-11-20T17:56:07;99201.00;;;8.90
13570;BMP180;6856;51.460;7.158;2022-11-20T17:59:40;99207.00;;;8.80
13570;BMP180;6856;51.460;7.158;2022-11-20T18:04:20;99110.00;;;8.90
13570;BMP180;6856;51.460;7.158;2022-11-20T18:46:40;99011.00;;;8.80
13570;BMP180;6856;51.460;7.158;2022-11-20T18:50:22;99026.00;;;8.80
13570;BMP180;6856;51.460;7.158;2022-11-20T18:54:12;99072.00;;;8.80
13570;BMP180;6856;51.460;7.158;2022-11-20T19:02:39;99021.00;;;8.80
13570;BMP180;6856;51.460;7.158;2022-11-20T19:05:16;99049.00;;;8.80
13570;BMP180;6856;51.460;7.158;2022-11-20T19:08:02;99037.00;;;8.80
13570;BMP180;6856;51.460;7.158;2022-11-20T19:11:25;99036.00;;;8.90
13570;BMP180;6856;51.460;7.158;2022-11-20T19:14:33;98996.00;;;8.90
13570;BMP180;6856;51.460;7.158;2022-11-20T19:17:35;99044.00;;;8.90
13570;BMP180;6856;51.460;7.158;2022-11-20T19:20:12;98952.00;;;8.90
13570;BMP180;6856;51.460;7.158;2022-11-20T19:22:57;98931.00;;;8.90
13570;BMP180;6856;51.460;7.158;2022-11-20T19:25:42;98910.00;;;9.00
13570;BMP180;6856;51.460;7.158;2022-11-20T19:28:44;98970.00;;;9.00
13570;BMP180;6856;51.460;7.158;2022-11-20T19:32:48;98988.00;;;9.00
13570;BMP180;6856;51.460;7.158;2022-11-20T19:35:31;98926.00;;;9.00
13570;BMP180;6856;51.460;7.158;2022-11-20T19:38:33;98919.00;;;9.10
13570;BMP180;6856;51.460;7.158;2022-11-20T19:41:39;98901.00;;;9.10
13570;BMP180;6856;51.460;7.158;2022-11-20T19:44:49;98911.00;;;9.00
13570;BMP180;6856;51.460;7.158;2022-11-20T19:48:07;98918.00;;;9.20
13570;BMP180;6856;51.460;7.158;2022-11-20T19:50:46;98963.00;;;9.20
13570;BMP180;6856;51.460;7.158;2022-11-20T19:53:45;98968.00;;;9.30
13570;BMP180;6856;51.460;7.158;2022-11-20T20:00:38;98968.00;;;9.20
13570;BMP180;6856;51.460;7.158;2022-11-20T20:03:15;98958.00;;;9.30
13570;BMP180;6856;51.460;7.158;2022-11-20T20:06:21;98954.00;;;9.40
13570;BMP180;6856;51.460;7.158;2022-11-20T20:09:04;98864.00;;;9.40